Time;durP1;ratioP1;P1;durP2;ratioP2;P2;SDS_P1;SDS_P2;PMS_P1;PMS_P2;Temp;Humidity;BMP_temperature;BMP_pressure;BME280_temperature;BME280_humidity;BME280_pressure;Samples;Min_cycle;Max_cycle;Signal;HPM_P1;HPM_P2
2024/01/11 00:01:47;;;;;;;1.15;0.40;;;2.20;99.90;;;;;;5022468;28;20103;-79
2024/01/11 00:04:13;;;;;;;0.10;0.10;;;2.20;99.90;;;;;;5018536;28;20071;-80
2024/01/11 00:06:45;;;;;;;0.40;0.40;;;2.30;99.90;;;;;;5022427;28;20037;-79
2024/01/11 00:09:10;;;;;;;2.50;2.30;;;2.20;99.90;;;;;;5018799;28;20029;-81
2024/01/11 00:11:36;;;;;;;0.20;0.20;;;2.30;99.90;;;;;;5021352;28;20091;-81
2024/01/11 00:14:02;;;;;;;0.10;0.10;;;2.20;99.90;;;;;;5023307;28;20033;-80
2024/01/11 00:16:28;;;;;;;0.10;0.10;;;2.30;99.90;;;;;;5019004;28;20747;-80
2024/01/11 00:18:54;;;;;;;0.10;0.10;;;2.20;99.90;;;;;;5019542;28;20044;-80
2024/01/11 00:21:19;;;;;;;0.10;0.10;;;2.20;99.90;;;;;;5017813;28;20033;-80
2024/01/11 00:23:45;;;;;;;0.08;0.08;;;2.30;99.90;;;;;;5021875;28;20060;-80
2024/01/11 00:26:13;;;;;;;0.10;0.10;;;2.20;99.90;;;;;;5013630;28;20048;-80
2024/01/11 00:28:39;;;;;;;0.10;0.10;;;2.20;99.90;;;;;;5019362;28;20033;-80
2024/01/11 00:31:05;;;;;;;0.10;0.10;;;2.30;99.90;;;;;;5019770;28;20039;-80
2024/01/11 00:33:31;;;;;;;0.10;0.10;;;2.20;99.90;;;;;;5017020;28;20049;-80
2024/01/11 00:35:56;;;;;;;0.82;0.82;;;2.20;99.90;;;;;;5020683;28;20112;-80
2024/01/11 00:38:22;;;;;;;0.10;0.10;;;2.20;99.90;;;;;;5026334;28;20876;-81
2024/01/11 00:40:48;;;;;;;0.00;0.00;;;2.10;99.90;;;;;;5015447;28;20033;-80
2024/01/11 00:43:14;;;;;;;0.10;0.10;;;2.20;99.90;;;;;;5022286;28;20064;-80
2024/01/11 00:45:40;;;;;;;0.10;0.10;;;2.20;99.90;;;;;;5024847;28;20126;-80
2024/01/11 00:48:06;;;;;;;0.00;0.00;;;2.20;99.90;;;;;;5024625;28;20025;-80
2024/01/11 00:50:31;;;;;;;0.20;0.20;;;2.20;99.90;;;;;;5015499;28;20765;-79
2024/01/11 00:52:57;;;;;;;0.10;0.10;;;2.20;99.90;;;;;;5014249;28;20108;-78
2024/01/11 00:55:24;;;;;;;0.10;0.10;;;2.20;99.90;;;;;;5021101;28;20501;-79
2024/01/11 00:57:50;;;;;;;0.10;0.10;;;2.10;99.90;;;;;;5012895;28;20022;-79
2024/01/11 01:00:16;;;;;;;0.10;0.10;;;2.10;99.90;;;;;;5020403;28;20033;-79
2024/01/11 01:02:42;;;;;;;0.30;0.30;;;2.20;99.90;;;;;;5021689;28;20029;-80
2024/01/11 01:05:08;;;;;;;0.63;0.63;;;2.10;99.90;;;;;;5021328;28;20621;-79
2024/01/11 01:07:34;;;;;;;0.25;0.25;;;2.10;99.90;;;;;;5018545;28;20029;-79
2024/01/11 01:09:59;;;;;;;0.10;0.10;;;2.20;99.90;;;;;;5013169;28;20041;-80
2024/01/11 01:12:25;;;;;;;0.10;0.10;;;2.20;99.90;;;;;;5018619;28;20486;-80
2024/01/11 01:14:51;;;;;;;0.00;0.00;;;2.20;99.90;;;;;;5016408;28;20033;-80
2024/01/11 01:17:17;;;;;;;0.10;0.10;;;2.20;99.90;;;;;;5019116;28;20064;-79
2024/01/11 01:19:44;;;;;;;0.00;0.00;;;2.20;99.90;;;;;;5021747;28;20666;-79
2024/01/11 01:22:09;;;;;;;0.00;0.00;;;2.20;99.90;;;;;;5027762;28;20041;-80
2024/01/11 01:24:35;;;;;;;0.63;0.63;;;2.30;99.90;;;;;;5017516;28;20080;-80
2024/01/11 01:27:01;;;;;;;0.32;0.32;;;2.20;99.90;;;;;;5019015;28;20030;-81
2024/01/11 01:29:27;;;;;;;0.30;0.30;;;2.20;99.90;;;;;;5017619;28;20026;-81
2024/01/11 01:31:52;;;;;;;0.10;0.10;;;2.10;99.90;;;;;;5018472;28;20060;-81
2024/01/11 01:34:19;;;;;;;0.25;0.25;;;2.10;99.90;;;;;;5010540;28;20025;-80
2024/01/11 01:36:45;;;;;;;0.10;0.10;;;2.10;99.90;;;;;;5015080;28;20037;-81
2024/01/11 01:39:11;;;;;;;3.83;3.22;;;2.10;99.90;;;;;;5026929;28;20029;-80
2024/01/11 01:41:36;;;;;;;0.10;0.10;;;2.10;99.90;;;;;;5019238;28;20144;-80
2024/01/11 01:44:02;;;;;;;0.10;0.10;;;2.10;99.90;;;;;;5019736;28;20059;-80
2024/01/11 01:46:28;;;;;;;0.10;0.10;;;2.10;99.90;;;;;;5011540;28;20405;-81
2024/01/11 01:48:57;;;;;;;0.20;0.20;;;2.10;99.90;;;;;;5017713;28;20116;-80
2024/01/11 01:51:26;;;;;;;0.20;0.20;;;2.20;99.90;;;;;;5025399;28;20104;-80
2024/01/11 01:53:53;;;;;;;0.00;0.00;;;2.20;99.90;;;;;;5029044;28;20030;-80
2024/01/11 01:56:20;;;;;;;0.10;0.10;;;2.20;99.90;;;;;;5020816;28;20021;-81
2024/01/11 01:58:46;;;;;;;3.72;3.42;;;2.20;99.90;;;;;;5025988;28;20026;-79
2024/01/11 02:01:13;;;;;;;0.30;0.30;;;2.20;99.90;;;;;;5020656;28;20748;-80
2024/01/11 02:03:39;;;;;;;;;;;2.30;99.90;;;;;;5022492;28;20497;-79
2024/01/11 02:06:06;;;;;;;;;;;2.30;99.90;;;;;;5023799;28;19999;-79
2024/01/11 02:08:32;;;;;;;0.17;0.17;;;2.20;99.90;;;;;;5017798;28;19967;-79
2024/01/11 02:10:59;;;;;;;0.38;0.38;;;2.30;99.90;;;;;;5028731;28;20037;-79
2024/01/11 02:13:25;;;;;;;0.10;0.10;;;2.30;99.90;;;;;;5024036;28;20128;-79
2024/01/11 02:15:51;;;;;;;0.10;0.10;;;2.30;99.90;;;;;;5023305;28;20385;-79
2024/01/11 02:18:17;;;;;;;0.10;0.10;;;2.20;99.90;;;;;;5019235;28;20434;-80
2024/01/11 02:20:43;;;;;;;0.10;0.10;;;2.20;99.90;;;;;;5027433;28;20156;-79
2024/01/11 02:23:14;;;;;;;0.10;0.10;;;2.20;99.90;;;;;;5024845;28;20039;-79
2024/01/11 02:25:40;;;;;;;0.10;0.10;;;2.30;99.90;;;;;;5021306;28;20523;-78
2024/01/11 02:28:06;;;;;;;0.10;0.10;;;2.30;99.90;;;;;;5020111;28;20022;-79
2024/01/11 02:30:32;;;;;;;0.10;0.10;;;2.30;99.90;;;;;;5016320;28;20029;-78
2024/01/11 02:32:57;;;;;;;0.08;0.08;;;2.20;99.90;;;;;;5017053;28;20025;-79
2024/01/11 02:35:25;;;;;;;0.10;0.10;;;2.20;99.90;;;;;;5023991;28;20072;-79
2024/01/11 02:37:51;;;;;;;0.30;0.30;;;2.20;99.90;;;;;;5023942;28;20029;-79
2024/01/11 02:40:18;;;;;;;0.10;0.10;;;2.30;99.90;;;;;;5023436;28;20021;-79
2024/01/11 02:42:44;;;;;;;0.10;0.10;;;2.30;99.90;;;;;;5015138;28;20096;-79
2024/01/11 02:45:12;;;;;;;0.10;0.10;;;2.20;99.90;;;;;;5022956;28;20105;-79
2024/01/11 02:47:38;;;;;;;0.55;0.50;;;2.30;99.90;;;;;;5022704;28;20060;-79
2024/01/11 02:50:04;;;;;;;0.10;0.10;;;2.20;99.90;;;;;;5022132;28;20022;-79
2024/01/11 02:52:30;;;;;;;0.30;0.30;;;2.30;99.90;;;;;;5020057;28;20298;-79
2024/01/11 02:54:56;;;;;;;0.43;0.43;;;2.30;99.90;;;;;;5021458;28;20029;-79
2024/01/11 02:57:21;;;;;;;0.10;0.10;;;2.30;99.90;;;;;;5019477;28;20032;-80
2024/01/11 02:59:47;;;;;;;0.52;0.52;;;2.30;99.90;;;;;;5019691;28;20029;-80
2024/01/11 03:02:13;;;;;;;0.10;0.10;;;2.30;99.90;;;;;;5022098;28;20029;-80
2024/01/11 03:04:38;;;;;;;0.10;0.10;;;2.30;99.90;;;;;;5020062;28;20052;-79
2024/01/11 03:07:04;;;;;;;0.10;0.10;;;2.30;99.90;;;;;;5021533;28;20026;-80
2024/01/11 03:09:29;;;;;;;0.10;0.10;;;2.30;99.90;;;;;;5018888;28;20552;-80
2024/01/11 03:11:55;;;;;;;0.10;0.10;;;2.40;99.90;;;;;;5022617;28;20441;-80
2024/01/11 03:14:21;;;;;;;0.10;0.10;;;2.40;99.90;;;;;;5016760;28;20141;-79
2024/01/11 03:16:46;;;;;;;0.10;0.10;;;2.40;99.90;;;;;;5020203;28;20026;-79
2024/01/11 03:19:12;;;;;;;0.10;0.10;;;2.30;99.90;;;;;;5020904;28;20029;-79
2024/01/11 03:21:43;;;;;;;0.10;0.10;;;2.40;99.90;;;;;;5021606;28;20037;-79
2024/01/11 03:24:09;;;;;;;0.45;0.45;;;2.40;99.90;;;;;;5021333;28;20029;-80
2024/01/11 03:26:34;;;;;;;0.10;0.10;;;2.40;99.90;;;;;;5020273;28;20701;-79
2024/01/11 03:29:00;;;;;;;0.10;0.10;;;2.50;99.90;;;;;;5022507;28;20026;-80
2024/01/11 03:31:26;;;;;;;0.10;0.10;;;2.50;99.90;;;;;;5017100;28;20058;-80
2024/01/11 03:33:51;;;;;;;0.10;0.10;;;2.50;99.90;;;;;;5022526;28;20884;-80
2024/01/11 03:36:17;;;;;;;0.10;0.10;;;2.50;99.90;;;;;;5019306;28;20029;-80
2024/01/11 03:38:43;;;;;;;0.10;0.10;;;2.50;99.90;;;;;;5022202;28;20025;-80
2024/01/11 03:41:09;;;;;;;0.10;0.10;;;2.40;99.90;;;;;;4973273;28;1164154;-80
2024/01/11 03:43:36;;;;;;;0.10;0.10;;;2.40;99.90;;;;;;5015952;28;20371;-80
2024/01/11 03:46:02;;;;;;;0.10;0.10;;;2.40;99.90;;;;;;5017637;28;20037;-80
2024/01/11 03:48:27;;;;;;;0.10;0.10;;;2.40;99.90;;;;;;5018731;28;20029;-79
2024/01/11 03:50:53;;;;;;;0.30;0.30;;;2.40;99.90;;;;;;5022419;28;20631;-80
2024/01/11 03:53:18;;;;;;;0.57;0.55;;;2.40;99.90;;;;;;5022017;28;20029;-79
2024/01/11 03:55:44;;;;;;;0.30;0.30;;;2.40;99.90;;;;;;5021012;28;20140;-81
2024/01/11 03:58:10;;;;;;;0.10;0.10;;;2.40;99.90;;;;;;5021527;28;20073;-80
2024/01/11 04:00:35;;;;;;;0.10;0.10;;;2.40;99.90;;;;;;5021051;28;20036;-80
2024/01/11 04:03:02;;;;;;;0.20;0.20;;;2.40;99.90;;;;;;5022938;28;20030;-79
2024/01/11 04:05:28;;;;;;;0.20;0.20;;;2.50;99.90;;;;;;5018520;28;20033;-80
2024/01/11 04:07:53;;;;;;;0.10;0.10;;;2.60;99.90;;;;;;5022199;28;20044;-80
2024/01/11 04:10:19;;;;;;;0.10;0.10;;;2.50;99.90;;;;;;5020180;28;20575;-79
2024/01/11 04:12:45;;;;;;;0.22;0.22;;;2.50;99.90;;;;;;5021786;28;20515;-79
2024/01/11 04:15:13;;;;;;;0.10;0.10;;;2.60;99.90;;;;;;5020581;28;20582;-79
2024/01/11 04:17:39;;;;;;;0.13;0.13;;;2.60;99.90;;;;;;5020300;28;20037;-80
2024/01/11 04:20:08;;;;;;;0.10;0.10;;;2.60;99.90;;;;;;5035316;28;20068;-79
2024/01/11 04:22:34;;;;;;;0.10;0.10;;;2.60;99.90;;;;;;5021142;28;20061;-81
2024/01/11 04:25:00;;;;;;;0.93;0.93;;;2.60;99.90;;;;;;5021927;28;20554;-80
2024/01/11 04:27:26;;;;;;;0.10;0.10;;;2.60;99.90;;;;;;5019965;28;20040;-80
2024/01/11 04:29:51;;;;;;;0.20;0.20;;;2.60;99.90;;;;;;5020153;28;20025;-80
2024/01/11 04:32:17;;;;;;;0.43;0.43;;;2.60;99.90;;;;;;5022271;28;20120;-80
2024/01/11 04:34:43;;;;;;;0.40;0.40;;;2.70;99.90;;;;;;5018187;28;20036;-79
2024/01/11 04:37:08;;;;;;;0.10;0.10;;;2.70;99.90;;;;;;5021118;28;20029;-79
2024/01/11 04:39:34;;;;;;;1.85;1.15;;;2.70;99.90;;;;;;5022939;28;20025;-79
2024/01/11 04:42:02;;;;;;;0.10;0.10;;;2.70;99.90;;;;;;5018273;28;20056;-79
2024/01/11 04:44:28;;;;;;;0.08;0.08;;;2.80;99.90;;;;;;5011608;28;20030;-79
2024/01/11 04:46:54;;;;;;;0.10;0.10;;;2.80;99.90;;;;;;5017549;28;20036;-80
2024/01/11 04:49:19;;;;;;;0.10;0.10;;;2.70;99.90;;;;;;5021532;28;20076;-79
2024/01/11 04:51:45;;;;;;;0.10;0.10;;;2.60;99.90;;;;;;5017898;28;20029;-80
2024/01/11 04:54:11;;;;;;;0.20;0.20;;;2.60;99.90;;;;;;5018447;28;20568;-79
2024/01/11 04:56:36;;;;;;;0.17;0.17;;;2.60;99.90;;;;;;5021395;28;20041;-80
2024/01/11 04:59:02;;;;;;;0.10;0.10;;;2.60;99.90;;;;;;5021360;28;20025;-79
2024/01/11 05:01:28;;;;;;;0.10;0.10;;;2.60;99.90;;;;;;5020045;28;20040;-80
2024/01/11 05:03:53;;;;;;;0.10;0.10;;;2.60;99.90;;;;;;5017579;28;20108;-79
2024/01/11 05:06:24;;;;;;;0.10;0.10;;;2.70;99.90;;;;;;5024267;28;20407;-79
2024/01/11 05:08:54;;;;;;;0.13;0.13;;;2.70;99.90;;;;;;5016954;28;20025;-80
2024/01/11 05:11:21;;;;;;;0.10;0.10;;;2.70;99.90;;;;;;5017810;28;20096;-80
2024/01/11 05:13:48;;;;;;;0.10;0.10;;;2.70;99.90;;;;;;5018886;28;20447;-79
2024/01/11 05:16:23;;;;;;;0.10;0.10;;;2.70;99.90;;;;;;5019031;28;20045;-79
2024/01/11 05:18:53;;;;;;;0.10;0.10;;;2.70;99.90;;;;;;5007380;28;20104;-80
2024/01/11 05:21:19;;;;;;;0.10;0.10;;;2.70;99.90;;;;;;5022171;28;20033;-79
2024/01/11 05:23:45;;;;;;;0.20;0.20;;;2.70;99.90;;;;;;5020655;28;20041;-79
2024/01/11 05:26:12;;;;;;;0.10;0.10;;;2.70;99.90;;;;;;5021479;28;20029;-79
2024/01/11 05:28:38;;;;;;;0.10;0.10;;;2.70;99.90;;;;;;5019465;28;20294;-79
2024/01/11 05:31:14;;;;;;;0.10;0.10;;;2.70;99.90;;;;;;5021001;28;20691;-79
2024/01/11 05:33:40;;;;;;;0.10;0.10;;;2.70;99.90;;;;;;5019490;28;20659;-79
2024/01/11 05:36:07;;;;;;;3.22;2.08;;;2.70;99.90;;;;;;5012924;28;20041;-82
2024/01/11 05:38:33;;;;;;;0.10;0.10;;;2.70;99.90;;;;;;5023736;28;20370;-81
2024/01/11 05:40:58;;;;;;;0.10;0.10;;;2.70;99.90;;;;;;5018364;28;20081;-81
2024/01/11 05:43:24;;;;;;;0.30;0.30;;;2.70;99.90;;;;;;5015183;28;20145;-80
2024/01/11 05:45:50;;;;;;;2.22;2.10;;;2.70;99.90;;;;;;5021072;28;20029;-80
2024/01/11 05:48:16;;;;;;;0.10;0.10;;;2.70;99.90;;;;;;5014369;28;20026;-80
2024/01/11 05:50:43;;;;;;;0.08;0.08;;;2.70;99.90;;;;;;5016277;28;20320;-80
2024/01/11 05:53:09;;;;;;;0.10;0.10;;;2.80;99.90;;;;;;5016963;28;20022;-81
2024/01/11 05:55:34;;;;;;;3.55;0.73;;;2.80;99.90;;;;;;5019421;28;20037;-80
2024/01/11 05:58:00;;;;;;;0.10;0.10;;;2.70;99.90;;;;;;5015453;28;20396;-78
2024/01/11 06:00:26;;;;;;;0.10;0.10;;;2.70;99.90;;;;;;5016510;28;20113;-79
2024/01/11 06:02:53;;;;;;;0.10;0.10;;;2.70;99.90;;;;;;5020803;28;20039;-79
2024/01/11 06:05:18;;;;;;;0.10;0.10;;;2.70;99.90;;;;;;5019817;28;20029;-80
2024/01/11 06:07:44;;;;;;;0.10;0.10;;;2.70;99.90;;;;;;5020638;28;20107;-79
2024/01/11 06:10:10;;;;;;;0.75;0.28;;;2.70;99.90;;;;;;5010038;28;21477;-79
2024/01/11 06:12:36;;;;;;;0.85;0.85;;;2.70;99.90;;;;;;5022390;28;20586;-80
2024/01/11 06:15:02;;;;;;;0.10;0.10;;;2.70;99.90;;;;;;5019513;28;20034;-81
2024/01/11 06:17:28;;;;;;;0.10;0.10;;;2.80;99.90;;;;;;5017209;28;20025;-79
2024/01/11 06:19:54;;;;;;;0.10;0.10;;;2.80;99.90;;;;;;5013402;28;20038;-81
2024/01/11 06:22:20;;;;;;;0.10;0.10;;;2.90;99.90;;;;;;5020791;28;20041;-79
2024/01/11 06:24:46;;;;;;;0.10;0.10;;;2.80;99.90;;;;;;5016317;28;20038;-78
2024/01/11 06:27:12;;;;;;;4.25;1.60;;;2.90;99.90;;;;;;5012729;28;20018;-77
2024/01/11 06:29:37;;;;;;;5.55;2.20;;;2.90;99.90;;;;;;5016364;28;20065;-77
2024/01/11 06:32:03;;;;;;;0.10;0.10;;;2.90;99.90;;;;;;5014905;28;20030;-77
2024/01/11 06:34:29;;;;;;;4.13;1.98;;;2.90;99.90;;;;;;5017614;28;20033;-78
2024/01/11 06:36:56;;;;;;;0.63;0.63;;;2.80;99.90;;;;;;5011404;28;20599;-77
2024/01/11 06:39:21;;;;;;;0.75;0.75;;;2.80;99.90;;;;;;5023251;28;20025;-77
2024/01/11 06:41:47;;;;;;;2.92;2.72;;;2.80;99.90;;;;;;5016136;28;20630;-77
2024/01/11 06:44:13;;;;;;;0.25;0.25;;;2.90;99.90;;;;;;5022228;28;20568;-77
2024/01/11 06:46:41;;;;;;;1.73;1.40;;;2.80;99.90;;;;;;5014415;28;20038;-78
2024/01/11 06:49:07;;;;;;;1.85;1.75;;;2.80;99.90;;;;;;5024341;28;20030;-78
2024/01/11 06:51:33;;;;;;;0.13;0.13;;;2.90;99.90;;;;;;5024420;28;20037;-77
2024/01/11 06:54:01;;;;;;;0.47;0.47;;;2.90;99.90;;;;;;5019291;28;20059;-77
2024/01/11 06:56:27;;;;;;;0.30;0.30;;;2.80;99.90;;;;;;5022974;28;20642;-77
2024/01/11 06:58:54;;;;;;;3.22;3.03;;;2.80;99.90;;;;;;5025049;28;20059;-77
2024/01/11 07:01:20;;;;;;;0.10;0.10;;;2.70;99.90;;;;;;5019732;28;21016;-76
2024/01/11 07:03:45;;;;;;;0.10;0.10;;;2.70;99.90;;;;;;5024246;28;20030;-77
2024/01/11 07:06:11;;;;;;;0.38;0.38;;;2.80;99.90;;;;;;5019615;28;20025;-77
2024/01/11 07:08:37;;;;;;;0.20;0.20;;;2.80;99.90;;;;;;5005660;28;20030;-77
2024/01/11 07:11:03;;;;;;;0.10;0.10;;;2.80;99.90;;;;;;5018765;28;20025;-77
2024/01/11 07:13:29;;;;;;;0.10;0.10;;;2.80;99.90;;;;;;5017852;28;20486;-77
2024/01/11 07:15:57;;;;;;;0.30;0.30;;;2.80;99.90;;;;;;5009820;28;20048;-77
2024/01/11 07:18:22;;;;;;;0.10;0.10;;;2.80;99.90;;;;;;5021872;28;20025;-77
2024/01/11 07:20:48;;;;;;;0.20;0.20;;;2.80;99.90;;;;;;5023699;28;20025;-77
2024/01/11 07:23:14;;;;;;;4.97;1.88;;;2.80;99.90;;;;;;5018185;28;20136;-77
2024/01/11 07:25:40;;;;;;;0.10;0.10;;;2.80;99.90;;;;;;5014584;28;20065;-77
2024/01/11 07:28:06;;;;;;;1.30;0.82;;;2.80;99.90;;;;;;5009514;28;20030;-77
2024/01/11 07:30:32;;;;;;;0.98;0.98;;;2.80;99.90;;;;;;5020443;28;20040;-76
2024/01/11 07:32:58;;;;;;;0.20;0.20;;;2.90;99.90;;;;;;5009393;28;20112;-77
2024/01/11 07:35:24;;;;;;;0.10;0.10;;;2.80;99.90;;;;;;5011429;28;20041;-77
2024/01/11 07:37:50;;;;;;;0.10;0.10;;;2.80;99.90;;;;;;5017713;28;20404;-77
2024/01/11 07:40:16;;;;;;;0.10;0.10;;;2.80;99.90;;;;;;5020305;28;20041;-77
2024/01/11 07:42:42;;;;;;;1.35;1.30;;;2.80;99.90;;;;;;5020606;28;20057;-77
2024/01/11 07:45:12;;;;;;;0.10;0.10;;;2.70;99.90;;;;;;5013313;28;20617;-77
2024/01/11 07:47:39;;;;;;;17.63;1.38;;;2.80;99.90;;;;;;5026599;28;20033;-77
2024/01/11 07:50:15;;;;;;;0.10;0.10;;;2.80;99.90;;;;;;5024177;28;20035;-77
2024/01/11 07:52:41;;;;;;;0.10;0.10;;;2.80;99.90;;;;;;5012965;28;20046;-77
2024/01/11 07:55:08;;;;;;;0.10;0.10;;;2.90;99.90;;;;;;5016293;28;20021;-78
2024/01/11 07:57:34;;;;;;;0.10;0.10;;;2.90;99.90;;;;;;5018458;28;20034;-76
2024/01/11 08:00:00;;;;;;;0.10;0.10;;;2.90;99.90;;;;;;5018075;28;20588;-77
2024/01/11 08:02:26;;;;;;;0.00;0.00;;;2.90;99.90;;;;;;5010441;28;20061;-77
2024/01/11 08:04:51;;;;;;;0.10;0.10;;;3.00;99.90;;;;;;5018507;28;21166;-77
2024/01/11 08:07:17;;;;;;;0.28;0.25;;;3.00;99.90;;;;;;5013033;28;20033;-77
2024/01/11 08:09:45;;;;;;;0.10;0.10;;;3.10;99.90;;;;;;5007526;28;20030;-77
2024/01/11 08:12:17;;;;;;;0.57;0.57;;;3.00;99.90;;;;;;5022243;28;20076;-77
2024/01/11 08:14:43;;;;;;;0.10;0.10;;;3.10;99.90;;;;;;5020060;28;20041;-77
2024/01/11 08:17:09;;;;;;;0.15;0.15;;;3.00;99.90;;;;;;5024849;28;20063;-77
2024/01/11 08:19:35;;;;;;;0.10;0.10;;;3.00;99.90;;;;;;5011325;28;20025;-78
2024/01/11 08:22:02;;;;;;;0.10;0.10;;;3.00;99.90;;;;;;5009554;28;20044;-77
2024/01/11 08:24:27;;;;;;;1.10;0.90;;;3.00;99.90;;;;;;5018637;28;20029;-77
2024/01/11 08:26:53;;;;;;;0.52;0.52;;;3.10;99.90;;;;;;5014375;28;20032;-77
2024/01/11 08:29:19;;;;;;;0.10;0.10;;;3.20;99.90;;;;;;5011652;28;20025;-77
2024/01/11 08:31:45;;;;;;;0.28;0.28;;;3.20;99.90;;;;;;5014602;28;20025;-78
2024/01/11 08:34:11;;;;;;;0.13;0.13;;;3.30;99.90;;;;;;5022417;28;20044;-77
2024/01/11 08:36:38;;;;;;;0.10;0.10;;;3.30;99.90;;;;;;5015233;28;20485;-77
2024/01/11 08:39:08;;;;;;;0.08;0.08;;;3.30;99.90;;;;;;5030068;28;20671;-77
2024/01/11 08:41:37;;;;;;;0.85;0.45;;;3.40;99.90;;;;;;5021231;28;20576;-77
2024/01/11 08:44:05;;;;;;;0.20;0.20;;;3.40;99.90;;;;;;5008920;28;20677;-77
2024/01/11 08:46:33;;;;;;;0.20;0.20;;;3.40;99.90;;;;;;5009016;28;20108;-77
2024/01/11 08:49:01;;;;;;;0.15;0.15;;;3.40;99.90;;;;;;5015765;28;20133;-77
2024/01/11 08:51:27;;;;;;;0.52;0.52;;;3.40;99.90;;;;;;5022652;28;20029;-78
2024/01/11 08:53:55;;;;;;;0.10;0.10;;;3.40;99.90;;;;;;5015308;28;20025;-77
2024/01/11 08:56:22;;;;;;;0.80;0.80;;;3.40;99.90;;;;;;5018037;28;20034;-77
2024/01/11 08:58:50;;;;;;;1.00;1.00;;;3.50;99.90;;;;;;5016022;28;20029;-78
2024/01/11 09:01:17;;;;;;;0.25;0.25;;;3.50;99.90;;;;;;5017845;28;20033;-78
2024/01/11 09:03:43;;;;;;;;;;;3.50;99.90;;;;;;5010096;28;20075;-78
2024/01/11 09:06:10;;;;;;;0.10;0.10;;;3.50;99.90;;;;;;5021214;28;19905;-77
2024/01/11 09:08:35;;;;;;;0.52;0.52;;;3.60;99.90;;;;;;5015582;28;20041;-77
2024/01/11 09:11:01;;;;;;;0.25;0.25;;;3.60;99.90;;;;;;5016676;28;20029;-77
2024/01/11 09:13:28;;;;;;;1.88;1.80;;;3.50;99.90;;;;;;5025312;28;20041;-78
2024/01/11 09:15:54;;;;;;;0.10;0.10;;;3.60;99.90;;;;;;5016694;28;20056;-77
2024/01/11 09:18:20;;;;;;;0.10;0.10;;;3.70;99.90;;;;;;5022220;28;20072;-78
2024/01/11 09:20:47;;;;;;;0.05;0.05;;;3.90;99.90;;;;;;5010248;28;20121;-77
2024/01/11 09:23:13;;;;;;;0.20;0.20;;;4.00;99.90;;;;;;5012732;28;20099;-78
2024/01/11 09:25:39;;;;;;;0.35;0.35;;;4.10;99.90;;;;;;5022069;28;20025;-78
2024/01/11 09:28:05;;;;;;;0.10;0.10;;;4.10;99.90;;;;;;5022420;28;20029;-77
2024/01/11 09:30:31;;;;;;;0.10;0.10;;;4.20;99.90;;;;;;5022010;28;20602;-77
2024/01/11 09:32:56;;;;;;;0.25;0.25;;;4.30;99.90;;;;;;5007471;28;20367;-77
2024/01/11 09:35:25;;;;;;;2.85;2.67;;;4.20;99.90;;;;;;5007998;28;20030;-78
2024/01/11 09:37:52;;;;;;;0.30;0.30;;;4.10;99.90;;;;;;5015185;28;20024;-78
2024/01/11 09:40:18;;;;;;;0.10;0.10;;;4.20;99.90;;;;;;5017654;28;20245;-78
2024/01/11 09:42:44;;;;;;;0.10;0.10;;;4.10;99.90;;;;;;5009672;28;20155;-78
2024/01/11 09:45:13;;;;;;;0.10;0.10;;;4.10;99.90;;;;;;5010408;28;20536;-77
2024/01/11 09:47:40;;;;;;;0.63;0.63;;;4.10;99.90;;;;;;5017794;28;20496;-77
2024/01/11 09:50:07;;;;;;;0.10;0.10;;;4.10;99.90;;;;;;5011554;28;20109;-78
2024/01/11 09:52:33;;;;;;;;;;;4.20;99.90;;;;;;5011183;28;20669;-77
2024/01/11 09:54:59;;;;;;;5.53;4.97;;;4.20;99.90;;;;;;5019676;28;19917;-78
2024/01/11 09:57:29;;;;;;;0.22;0.22;;;4.10;99.90;;;;;;5016057;28;20033;-77
2024/01/11 09:59:57;;;;;;;0.25;0.25;;;4.10;99.90;;;;;;5013992;28;20036;-78
2024/01/11 10:02:26;;;;;;;0.10;0.10;;;4.10;99.90;;;;;;5012780;28;20034;-77
2024/01/11 10:04:52;;;;;;;0.10;0.10;;;4.00;99.90;;;;;;5015516;28;20779;-77
2024/01/11 10:07:21;;;;;;;0.10;0.10;;;4.10;99.90;;;;;;5010943;28;20487;-78
2024/01/11 10:09:47;;;;;;;1.77;1.17;;;4.10;99.90;;;;;;5020806;28;20037;-77
2024/01/11 10:12:13;;;;;;;0.25;0.25;;;4.00;99.90;;;;;;5034153;28;20029;-78
2024/01/11 10:14:39;;;;;;;2.15;0.95;;;4.10;99.90;;;;;;5013848;28;20022;-78
2024/01/11 10:17:07;;;;;;;0.13;0.13;;;4.00;99.90;;;;;;5023097;28;20028;-78
2024/01/11 10:19:32;;;;;;;0.10;0.10;;;4.10;99.90;;;;;;5034169;28;20032;-78
2024/01/11 10:21:58;;;;;;;0.10;0.10;;;4.20;99.90;;;;;;5016386;28;20034;-77
2024/01/11 10:24:26;;;;;;;0.10;0.10;;;4.30;99.90;;;;;;5014453;28;20026;-78
2024/01/11 10:26:59;;;;;;;0.10;0.10;;;4.30;99.90;;;;;;5016656;28;20052;-78
2024/01/11 10:29:32;;;;;;;1.00;1.00;;;4.20;99.90;;;;;;5019457;28;20074;-77
2024/01/11 10:31:58;;;;;;;0.10;0.10;;;4.20;99.90;;;;;;5018914;28;20029;-78
2024/01/11 10:34:24;;;;;;;0.10;0.10;;;4.30;99.90;;;;;;5021381;28;20041;-77
2024/01/11 10:36:51;;;;;;;0.10;0.10;;;4.30;99.90;;;;;;5018765;28;20131;-78
2024/01/11 10:39:17;;;;;;;0.10;0.10;;;4.30;99.90;;;;;;5029689;28;20026;-78
2024/01/11 10:41:50;;;;;;;0.17;0.17;;;4.40;99.90;;;;;;5011264;28;20856;-78
2024/01/11 10:44:24;;;;;;;0.90;0.90;;;4.50;99.90;;;;;;5016240;28;20112;-77
2024/01/11 10:46:51;;;;;;;0.52;0.52;;;4.40;99.90;;;;;;5025199;28;20033;-77
2024/01/11 10:49:23;;;;;;;0.15;0.15;;;4.60;99.90;;;;;;5015461;28;20025;-78
2024/01/11 10:52:20;;;;;;;0.10;0.10;;;4.60;99.90;;;;;;5022743;28;20479;-77
2024/01/11 10:54:47;;;;;;;0.10;0.10;;;4.60;99.90;;;;;;5005749;28;20569;-77
2024/01/11 10:57:13;;;;;;;0.10;0.10;;;4.50;99.90;;;;;;5012823;28;20414;-78
2024/01/11 10:59:40;;;;;;;0.10;0.10;;;4.80;99.90;;;;;;5019625;28;20022;-77
2024/01/11 11:02:07;;;;;;;0.10;0.10;;;4.80;99.90;;;;;;5019486;28;20060;-77
2024/01/11 11:04:35;;;;;;;0.30;0.30;;;5.00;99.90;;;;;;5016191;28;20608;-78
2024/01/11 11:07:02;;;;;;;0.32;0.32;;;5.30;99.90;;;;;;5021598;28;20035;-77
2024/01/11 11:09:30;;;;;;;0.10;0.10;;;5.40;99.90;;;;;;5012004;28;20600;-77
2024/01/11 11:11:59;;;;;;;0.20;0.20;;;5.40;99.90;;;;;;5019488;28;20408;-77
2024/01/11 11:14:25;;;;;;;0.10;0.10;;;5.30;99.90;;;;;;5016361;28;20030;-78
2024/01/11 11:16:52;;;;;;;0.20;0.20;;;5.10;99.90;;;;;;5015348;28;20264;-78
2024/01/11 11:19:19;;;;;;;;;;;4.90;99.90;;;;;;5012118;28;20025;-78
2024/01/11 11:21:45;;;;;;;0.10;0.10;;;5.00;99.90;;;;;;5014099;28;19909;-78
2024/01/11 11:24:12;;;;;;;0.15;0.15;;;4.90;99.90;;;;;;5016111;28;20059;-77
2024/01/11 11:26:38;;;;;;;;;;;4.90;99.90;;;;;;5016805;28;20057;-77
2024/01/11 11:29:04;;;;;;;0.10;0.10;;;4.70;99.90;;;;;;5021245;28;19909;-78
2024/01/11 11:31:43;;;;;;;0.43;0.43;;;4.90;99.90;;;;;;5018239;28;20021;-77
2024/01/11 11:34:12;;;;;;;0.10;0.10;;;5.20;99.90;;;;;;5017345;28;20891;-77
2024/01/11 11:36:40;;;;;;;0.10;0.10;;;5.20;99.90;;;;;;5017034;28;20054;-77
2024/01/11 11:39:06;;;;;;;0.10;0.10;;;5.30;99.90;;;;;;5026535;28;20484;-78
2024/01/11 11:41:34;;;;;;;0.10;0.10;;;5.10;99.90;;;;;;5024144;28;20057;-78
2024/01/11 11:44:04;;;;;;;0.10;0.10;;;5.40;99.90;;;;;;5024263;28;20076;-77
2024/01/11 11:46:31;;;;;;;0.70;0.70;;;5.40;99.90;;;;;;5020777;28;20267;-78
2024/01/11 11:48:57;;;;;;;1.90;1.00;;;5.40;99.90;;;;;;5024417;28;20536;-77
2024/01/11 11:51:23;;;;;;;0.30;0.30;;;5.50;99.90;;;;;;5018874;28;20030;-77
2024/01/11 11:53:50;;;;;;;0.20;0.20;;;5.50;99.90;;;;;;5022025;28;20032;-78
2024/01/11 11:56:21;;;;;;;0.73;0.73;;;5.20;99.90;;;;;;5021785;28;20041;-78
2024/01/11 11:58:49;;;;;;;0.10;0.10;;;5.20;99.90;;;;;;5023696;28;20544;-77
2024/01/11 12:01:19;;;;;;;0.65;0.65;;;5.30;99.90;;;;;;5022029;28;20034;-78
2024/01/11 12:03:49;;;;;;;0.10;0.10;;;5.20;99.90;;;;;;5022600;28;20055;-78
2024/01/11 12:06:19;;;;;;;0.10;0.10;;;5.40;99.90;;;;;;5021152;28;20563;-78
2024/01/11 12:08:45;;;;;;;0.10;0.10;;;5.30;99.90;;;;;;5004255;28;20018;-78
2024/01/11 12:11:19;;;;;;;0.00;0.00;;;5.30;99.90;;;;;;5036524;28;20573;-78
2024/01/11 12:13:45;;;;;;;0.10;0.10;;;5.20;99.90;;;;;;5029552;28;20083;-79
2024/01/11 12:16:12;;;;;;;0.10;0.10;;;5.10;99.90;;;;;;5010669;28;20044;-78
2024/01/11 12:18:38;;;;;;;0.10;0.10;;;4.70;99.90;;;;;;5015348;28;20497;-78
2024/01/11 12:21:04;;;;;;;0.10;0.10;;;4.70;99.90;;;;;;5019420;28;20256;-78
2024/01/11 12:23:30;;;;;;;0.60;0.60;;;4.60;99.90;;;;;;5012468;28;20033;-78
2024/01/11 12:25:57;;;;;;;0.10;0.10;;;4.50;99.90;;;;;;5020052;28;20936;-77
2024/01/11 12:28:24;;;;;;;0.20;0.20;;;4.70;99.90;;;;;;5006908;28;20072;-78
2024/01/11 12:30:49;;;;;;;0.20;0.20;;;4.70;99.90;;;;;;5019870;28;20021;-78
2024/01/11 12:33:15;;;;;;;0.20;0.20;;;4.90;99.90;;;;;;5013203;28;20056;-78
2024/01/11 12:35:41;;;;;;;0.10;0.10;;;5.00;99.90;;;;;;5019013;28;20030;-78
2024/01/11 12:38:09;;;;;;;0.10;0.10;;;5.00;99.90;;;;;;5019709;28;20388;-78
2024/01/11 12:40:38;;;;;;;0.28;0.28;;;4.90;99.90;;;;;;5025287;28;20029;-78
2024/01/11 12:43:05;;;;;;;0.55;0.55;;;4.90;99.90;;;;;;5009637;28;20619;-77
2024/01/11 12:45:32;;;;;;;0.20;0.20;;;4.70;99.90;;;;;;5014627;28;20773;-78
2024/01/11 12:47:59;;;;;;;;;;;4.80;99.90;;;;;;5016399;28;20037;-77
2024/01/11 12:50:27;;;;;;;0.10;0.10;;;4.70;99.90;;;;;;5016090;28;19909;-77
2024/01/11 12:53:18;;;;;;;0.10;0.10;;;4.80;99.90;;;;;;5017352;28;20026;-78
2024/01/11 12:56:08;;;;;;;0.40;0.40;;;5.10;99.90;;;;;;5017193;28;20038;-77